sensor_id;sensor_type;location;lat;lon;timestamp;P1;durP1;ratioP1;P2;durP2;ratioP2
8139;SDS011;4111;50.972;7.072;2022-10-16T00:01:13;2.93;;;2.40;;
8139;SDS011;4111;50.972;7.072;2022-10-16T00:03:41;4.90;;;2.73;;
8139;SDS011;4111;50.972;7.072;2022-10-16T00:06:09;5.90;;;2.53;;
8139;SDS011;4111;50.972;7.072;2022-10-16T00:08:37;4.47;;;2.53;;
8139;SDS011;4111;50.972;7.072;2022-10-16T00:11:14;3.33;;;2.70;;
8139;SDS011;4111;50.972;7.072;2022-10-16T00:13:43;2.50;;;2.30;;
8139;SDS011;4111;50.972;7.072;2022-10-16T00:16:11;4.10;;;2.40;;
8139;SDS011;4111;50.972;7.072;2022-10-16T00:18:38;4.77;;;2.23;;
8139;SDS011;4111;50.972;7.072;2022-10-16T00:21:06;3.83;;;2.50;;
8139;SDS011;4111;50.972;7.072;2022-10-16T00:23:34;2.63;;;2.43;;
8139;SDS011;4111;50.972;7.072;2022-10-16T00:26:03;2.80;;;2.60;;
8139;SDS011;4111;50.972;7.072;2022-10-16T00:28:32;4.60;;;2.90;;
8139;SDS011;4111;50.972;7.072;2022-10-16T00:31:04;2.80;;;2.37;;
8139;SDS011;4111;50.972;7.072;2022-10-16T00:33:32;3.17;;;2.30;;
8139;SDS011;4111;50.972;7.072;2022-10-16T00:35:59;8.10;;;2.93;;
8139;SDS011;4111;50.972;7.072;2022-10-16T00:38:26;4.57;;;3.73;;
8139;SDS011;4111;50.972;7.072;2022-10-16T00:40:52;4.03;;;2.70;;
8139;SDS011;4111;50.972;7.072;2022-10-16T00:46:35;5.30;;;2.50;;
8139;SDS011;4111;50.972;7.072;2022-10-16T00:49:05;3.63;;;2.63;;
8139;SDS011;4111;50.972;7.072;2022-10-16T00:54:02;3.23;;;2.30;;
8139;SDS011;4111;50.972;7.072;2022-10-16T00:56:31;2.40;;;2.17;;
8139;SDS011;4111;50.972;7.072;2022-10-16T00:58:59;7.10;;;2.20;;
8139;SDS011;4111;50.972;7.072;2022-10-16T01:01:33;1.57;;;1.50;;
8139;SDS011;4111;50.972;7.072;2022-10-16T01:04:00;4.37;;;1.90;;
8139;SDS011;4111;50.972;7.072;2022-10-16T01:06:37;6.77;;;2.03;;
8139;SDS011;4111;50.972;7.072;2022-10-16T01:09:13;2.17;;;1.90;;
8139;SDS011;4111;50.972;7.072;2022-10-16T01:15:02;1.60;;;1.50;;
8139;SDS011;4111;50.972;7.072;2022-10-16T01:20:16;3.47;;;1.80;;
8139;SDS011;4111;50.972;7.072;2022-10-16T01:28:40;1.53;;;1.43;;
8139;SDS011;4111;50.972;7.072;2022-10-16T01:31:15;2.53;;;1.90;;
8139;SDS011;4111;50.972;7.072;2022-10-16T01:33:45;2.23;;;2.03;;
8139;SDS011;4111;50.972;7.072;2022-10-16T01:36:18;4.57;;;3.20;;
8139;SDS011;4111;50.972;7.072;2022-10-16T01:38:51;4.13;;;2.00;;
8139;SDS011;4111;50.972;7.072;2022-10-16T01:41:24;1.70;;;1.60;;
8139;SDS011;4111;50.972;7.072;2022-10-16T01:43:57;2.40;;;1.70;;
8139;SDS011;4111;50.972;7.072;2022-10-16T01:46:29;2.17;;;1.53;;
8139;SDS011;4111;50.972;7.072;2022-10-16T01:48:57;1.80;;;1.53;;
8139;SDS011;4111;50.972;7.072;2022-10-16T01:51:26;3.80;;;1.77;;
8139;SDS011;4111;50.972;7.072;2022-10-16T01:53:56;3.73;;;1.50;;
8139;SDS011;4111;50.972;7.072;2022-10-16T01:56:26;1.87;;;1.40;;
8139;SDS011;4111;50.972;7.072;2022-10-16T01:59:05;3.10;;;1.50;;
8139;SDS011;4111;50.972;7.072;2022-10-16T02:01:36;1.40;;;1.30;;
8139;SDS011;4111;50.972;7.072;2022-10-16T02:04:20;1.90;;;1.37;;
8139;SDS011;4111;50.972;7.072;2022-10-16T02:06:50;1.67;;;1.50;;
8139;SDS011;4111;50.972;7.072;2022-10-16T02:09:19;1.43;;;1.37;;
8139;SDS011;4111;50.972;7.072;2022-10-16T02:11:45;4.97;;;1.70;;
8139;SDS011;4111;50.972;7.072;2022-10-16T02:14:12;1.97;;;1.60;;
8139;SDS011;4111;50.972;7.072;2022-10-16T02:16:40;1.63;;;1.30;;
8139;SDS011;4111;50.972;7.072;2022-10-16T02:19:08;2.40;;;1.60;;
8139;SDS011;4111;50.972;7.072;2022-10-16T02:21:40;4.93;;;1.70;;
8139;SDS011;4111;50.972;7.072;2022-10-16T02:24:11;3.50;;;1.50;;
8139;SDS011;4111;50.972;7.072;2022-10-16T02:29:39;2.00;;;1.37;;
8139;SDS011;4111;50.972;7.072;2022-10-16T02:32:15;2.90;;;1.40;;
8139;SDS011;4111;50.972;7.072;2022-10-16T02:34:46;3.40;;;1.50;;
8139;SDS011;4111;50.972;7.072;2022-10-16T02:37:15;3.47;;;1.80;;
8139;SDS011;4111;50.972;7.072;2022-10-16T02:39:43;1.83;;;1.60;;
8139;SDS011;4111;50.972;7.072;2022-10-16T02:42:13;4.53;;;1.70;;
8139;SDS011;4111;50.972;7.072;2022-10-16T02:44:40;2.90;;;1.60;;
8139;SDS011;4111;50.972;7.072;2022-10-16T02:47:08;1.77;;;1.57;;
8139;SDS011;4111;50.972;7.072;2022-10-16T02:49:34;1.80;;;1.70;;
8139;SDS011;4111;50.972;7.072;2022-10-16T02:52:01;1.60;;;1.37;;
8139;SDS011;4111;50.972;7.072;2022-10-16T02:54:28;1.60;;;1.47;;
8139;SDS011;4111;50.972;7.072;2022-10-16T02:56:54;1.80;;;1.60;;
8139;SDS011;4111;50.972;7.072;2022-10-16T02:59:21;1.77;;;1.40;;
8139;SDS011;4111;50.972;7.072;2022-10-16T03:01:47;4.03;;;1.50;;
8139;SDS011;4111;50.972;7.072;2022-10-16T03:04:13;1.60;;;1.50;;
8139;SDS011;4111;50.972;7.072;2022-10-16T03:06:41;2.63;;;1.33;;
8139;SDS011;4111;50.972;7.072;2022-10-16T03:09:07;2.33;;;1.67;;
8139;SDS011;4111;50.972;7.072;2022-10-16T03:11:34;5.90;;;1.50;;
8139;SDS011;4111;50.972;7.072;2022-10-16T03:14:00;1.60;;;1.50;;
8139;SDS011;4111;50.972;7.072;2022-10-16T03:16:26;5.77;;;1.53;;
8139;SDS011;4111;50.972;7.072;2022-10-16T03:18:53;2.43;;;1.60;;
8139;SDS011;4111;50.972;7.072;2022-10-16T03:21:19;3.80;;;1.60;;
8139;SDS011;4111;50.972;7.072;2022-10-16T03:23:46;1.80;;;1.70;;
8139;SDS011;4111;50.972;7.072;2022-10-16T03:26:12;1.50;;;1.40;;
8139;SDS011;4111;50.972;7.072;2022-10-16T03:28:39;4.17;;;1.70;;
8139;SDS011;4111;50.972;7.072;2022-10-16T03:31:05;4.00;;;1.70;;
8139;SDS011;4111;50.972;7.072;2022-10-16T03:33:32;4.67;;;1.80;;
8139;SDS011;4111;50.972;7.072;2022-10-16T03:35:58;1.87;;;1.77;;
8139;SDS011;4111;50.972;7.072;2022-10-16T03:38:24;4.37;;;1.63;;
8139;SDS011;4111;50.972;7.072;2022-10-16T03:40:51;3.43;;;1.67;;
8139;SDS011;4111;50.972;7.072;2022-10-16T03:43:17;2.37;;;1.77;;
8139;SDS011;4111;50.972;7.072;2022-10-16T03:45:44;4.53;;;2.23;;
8139;SDS011;4111;50.972;7.072;2022-10-16T03:48:10;1.60;;;1.40;;
8139;SDS011;4111;50.972;7.072;2022-10-16T03:50:36;2.00;;;1.63;;
8139;SDS011;4111;50.972;7.072;2022-10-16T03:53:03;6.97;;;1.60;;
8139;SDS011;4111;50.972;7.072;2022-10-16T03:55:29;4.93;;;2.00;;
8139;SDS011;4111;50.972;7.072;2022-10-16T03:57:56;2.83;;;2.60;;
8139;SDS011;4111;50.972;7.072;2022-10-16T04:00:22;5.03;;;3.30;;
8139;SDS011;4111;50.972;7.072;2022-10-16T04:02:48;4.47;;;2.47;;
8139;SDS011;4111;50.972;7.072;2022-10-16T04:05:15;2.67;;;1.80;;
8139;SDS011;4111;50.972;7.072;2022-10-16T04:07:41;1.47;;;1.43;;
8139;SDS011;4111;50.972;7.072;2022-10-16T04:10:08;5.13;;;1.90;;
8139;SDS011;4111;50.972;7.072;2022-10-16T04:12:34;5.23;;;2.17;;
8139;SDS011;4111;50.972;7.072;2022-10-16T04:15:01;2.67;;;2.30;;
8139;SDS011;4111;50.972;7.072;2022-10-16T04:17:27;1.90;;;1.80;;
8139;SDS011;4111;50.972;7.072;2022-10-16T04:19:54;2.10;;;2.00;;
8139;SDS011;4111;50.972;7.072;2022-10-16T04:22:21;2.20;;;2.00;;
8139;SDS011;4111;50.972;7.072;2022-10-16T04:24:47;2.57;;;1.83;;
8139;SDS011;4111;50.972;7.072;2022-10-16T04:27:14;2.67;;;1.83;;
8139;SDS011;4111;50.972;7.072;2022-10-16T04:29:40;1.70;;;1.50;;
8139;SDS011;4111;50.972;7.072;2022-10-16T04:32:07;2.60;;;1.50;;
8139;SDS011;4111;50.972;7.072;2022-10-16T04:34:35;4.83;;;1.93;;
8139;SDS011;4111;50.972;7.072;2022-10-16T04:37:01;3.00;;;1.60;;
8139;SDS011;4111;50.972;7.072;2022-10-16T04:39:28;6.77;;;1.60;;
8139;SDS011;4111;50.972;7.072;2022-10-16T04:41:54;2.93;;;1.57;;
8139;SDS011;4111;50.972;7.072;2022-10-16T04:44:20;4.47;;;1.60;;
8139;SDS011;4111;50.972;7.072;2022-10-16T04:46:47;1.60;;;1.43;;
8139;SDS011;4111;50.972;7.072;2022-10-16T04:49:13;2.43;;;1.40;;
8139;SDS011;4111;50.972;7.072;2022-10-16T04:51:40;8.67;;;1.80;;
8139;SDS011;4111;50.972;7.072;2022-10-16T04:54:06;3.33;;;1.50;;
8139;SDS011;4111;50.972;7.072;2022-10-16T04:56:33;1.93;;;1.53;;
8139;SDS011;4111;50.972;7.072;2022-10-16T04:59:05;2.67;;;1.70;;
8139;SDS011;4111;50.972;7.072;2022-10-16T05:01:32;4.60;;;1.50;;
8139;SDS011;4111;50.972;7.072;2022-10-16T05:03:58;1.50;;;1.40;;
8139;SDS011;4111;50.972;7.072;2022-10-16T05:06:25;4.67;;;1.60;;
8139;SDS011;4111;50.972;7.072;2022-10-16T05:08:51;1.77;;;1.53;;
8139;SDS011;4111;50.972;7.072;2022-10-16T05:11:18;2.83;;;1.80;;
8139;SDS011;4111;50.972;7.072;2022-10-16T05:13:44;4.60;;;1.60;;
8139;SDS011;4111;50.972;7.072;2022-10-16T05:16:10;1.70;;;1.60;;
8139;SDS011;4111;50.972;7.072;2022-10-16T05:18:37;7.53;;;1.90;;
8139;SDS011;4111;50.972;7.072;2022-10-16T05:21:03;3.43;;;2.93;;
8139;SDS011;4111;50.972;7.072;2022-10-16T05:23:30;2.90;;;2.10;;
8139;SDS011;4111;50.972;7.072;2022-10-16T05:25:56;2.50;;;2.30;;
8139;SDS011;4111;50.972;7.072;2022-10-16T05:28:25;2.67;;;2.47;;
8139;SDS011;4111;50.972;7.072;2022-10-16T05:30:53;3.53;;;2.13;;
8139;SDS011;4111;50.972;7.072;2022-10-16T05:33:21;5.10;;;4.60;;
8139;SDS011;4111;50.972;7.072;2022-10-16T05:35:47;7.30;;;2.80;;
8139;SDS011;4111;50.972;7.072;2022-10-16T05:38:13;2.67;;;2.17;;
8139;SDS011;4111;50.972;7.072;2022-10-16T05:40:40;1.90;;;1.80;;
8139;SDS011;4111;50.972;7.072;2022-10-16T05:43:06;2.83;;;2.53;;
8139;SDS011;4111;50.972;7.072;2022-10-16T05:45:33;3.60;;;2.30;;
8139;SDS011;4111;50.972;7.072;2022-10-16T05:47:59;1.50;;;1.40;;
8139;SDS011;4111;50.972;7.072;2022-10-16T05:50:26;3.10;;;1.33;;
8139;SDS011;4111;50.972;7.072;2022-10-16T05:52:53;2.57;;;1.20;;
8139;SDS011;4111;50.972;7.072;2022-10-16T05:55:19;3.17;;;1.70;;
8139;SDS011;4111;50.972;7.072;2022-10-16T05:57:46;1.90;;;1.80;;
8139;SDS011;4111;50.972;7.072;2022-10-16T06:00:12;3.23;;;2.53;;
8139;SDS011;4111;50.972;7.072;2022-10-16T06:02:39;2.53;;;2.33;;
8139;SDS011;4111;50.972;7.072;2022-10-16T06:05:05;2.50;;;2.00;;
8139;SDS011;4111;50.972;7.072;2022-10-16T06:07:34;2.20;;;1.70;;
8139;SDS011;4111;50.972;7.072;2022-10-16T06:10:02;3.20;;;1.90;;
8139;SDS011;4111;50.972;7.072;2022-10-16T06:12:29;1.80;;;1.70;;
8139;SDS011;4111;50.972;7.072;2022-10-16T06:14:56;1.77;;;1.63;;
8139;SDS011;4111;50.972;7.072;2022-10-16T06:17:22;2.97;;;1.50;;
8139;SDS011;4111;50.972;7.072;2022-10-16T06:19:49;3.17;;;1.30;;
8139;SDS011;4111;50.972;7.072;2022-10-16T06:22:16;1.70;;;1.60;;
8139;SDS011;4111;50.972;7.072;2022-10-16T06:24:42;1.43;;;1.33;;
8139;SDS011;4111;50.972;7.072;2022-10-16T06:27:08;2.63;;;1.40;;
8139;SDS011;4111;50.972;7.072;2022-10-16T06:29:38;1.87;;;1.43;;
8139;SDS011;4111;50.972;7.072;2022-10-16T06:32:04;1.60;;;1.50;;
8139;SDS011;4111;50.972;7.072;2022-10-16T06:34:30;2.50;;;1.20;;
8139;SDS011;4111;50.972;7.072;2022-10-16T06:36:57;2.07;;;1.30;;
8139;SDS011;4111;50.972;7.072;2022-10-16T06:39:23;3.47;;;1.53;;
8139;SDS011;4111;50.972;7.072;2022-10-16T06:41:50;2.87;;;1.60;;
8139;SDS011;4111;50.972;7.072;2022-10-16T06:44:16;3.63;;;1.47;;
8139;SDS011;4111;50.972;7.072;2022-10-16T06:46:42;7.43;;;1.63;;
8139;SDS011;4111;50.972;7.072;2022-10-16T06:49:09;1.27;;;1.20;;
8139;SDS011;4111;50.972;7.072;2022-10-16T06:51:35;1.50;;;1.40;;
8139;SDS011;4111;50.972;7.072;2022-10-16T06:54:08;2.07;;;1.47;;
8139;SDS011;4111;50.972;7.072;2022-10-16T06:56:35;2.80;;;1.50;;
8139;SDS011;4111;50.972;7.072;2022-10-16T06:59:02;3.80;;;1.80;;
8139;SDS011;4111;50.972;7.072;2022-10-16T07:01:28;1.50;;;1.40;;
8139;SDS011;4111;50.972;7.072;2022-10-16T07:03:56;2.50;;;1.40;;
8139;SDS011;4111;50.972;7.072;2022-10-16T07:06:23;3.27;;;1.60;;
8139;SDS011;4111;50.972;7.072;2022-10-16T07:08:51;2.60;;;1.47;;
8139;SDS011;4111;50.972;7.072;2022-10-16T07:11:20;5.53;;;1.63;;
8139;SDS011;4111;50.972;7.072;2022-10-16T07:13:48;3.73;;;2.33;;
8139;SDS011;4111;50.972;7.072;2022-10-16T07:16:20;1.80;;;1.70;;
8139;SDS011;4111;50.972;7.072;2022-10-16T07:18:48;1.40;;;1.30;;
8139;SDS011;4111;50.972;7.072;2022-10-16T07:21:16;1.67;;;1.57;;
8139;SDS011;4111;50.972;7.072;2022-10-16T07:23:45;1.93;;;1.67;;
8139;SDS011;4111;50.972;7.072;2022-10-16T07:26:17;1.87;;;1.67;;
8139;SDS011;4111;50.972;7.072;2022-10-16T07:28:43;2.63;;;1.10;;
8139;SDS011;4111;50.972;7.072;2022-10-16T07:31:11;1.80;;;1.70;;
8139;SDS011;4111;50.972;7.072;2022-10-16T07:33:39;3.63;;;1.40;;
8139;SDS011;4111;50.972;7.072;2022-10-16T07:36:10;2.17;;;1.40;;
8139;SDS011;4111;50.972;7.072;2022-10-16T07:38:41;4.83;;;1.97;;
8139;SDS011;4111;50.972;7.072;2022-10-16T07:41:09;1.70;;;1.60;;
8139;SDS011;4111;50.972;7.072;2022-10-16T07:43:38;2.93;;;1.50;;
8139;SDS011;4111;50.972;7.072;2022-10-16T07:46:04;3.73;;;1.73;;
8139;SDS011;4111;50.972;7.072;2022-10-16T07:48:32;2.40;;;1.60;;
8139;SDS011;4111;50.972;7.072;2022-10-16T07:51:04;2.00;;;1.67;;
8139;SDS011;4111;50.972;7.072;2022-10-16T07:53:31;2.90;;;1.80;;
8139;SDS011;4111;50.972;7.072;2022-10-16T07:56:01;4.07;;;1.90;;
8139;SDS011;4111;50.972;7.072;2022-10-16T07:58:29;6.23;;;1.63;;
8139;SDS011;4111;50.972;7.072;2022-10-16T08:00:56;6.07;;;1.80;;
8139;SDS011;4111;50.972;7.072;2022-10-16T08:03:24;5.03;;;3.33;;
8139;SDS011;4111;50.972;7.072;2022-10-16T08:05:51;2.33;;;2.13;;
8139;SDS011;4111;50.972;7.072;2022-10-16T08:08:18;2.60;;;1.60;;
8139;SDS011;4111;50.972;7.072;2022-10-16T08:10:45;2.20;;;1.50;;
8139;SDS011;4111;50.972;7.072;2022-10-16T08:13:11;2.83;;;2.00;;
8139;SDS011;4111;50.972;7.072;2022-10-16T08:15:42;3.50;;;1.40;;
8139;SDS011;4111;50.972;7.072;2022-10-16T08:18:09;1.73;;;1.63;;
8139;SDS011;4111;50.972;7.072;2022-10-16T08:20:36;4.80;;;1.67;;
8139;SDS011;4111;50.972;7.072;2022-10-16T08:23:02;1.70;;;1.60;;
8139;SDS011;4111;50.972;7.072;2022-10-16T08:25:28;2.27;;;1.80;;
8139;SDS011;4111;50.972;7.072;2022-10-16T08:27:55;4.27;;;1.83;;
8139;SDS011;4111;50.972;7.072;2022-10-16T08:30:22;2.63;;;1.50;;
8139;SDS011;4111;50.972;7.072;2022-10-16T08:32:49;2.07;;;1.40;;
8139;SDS011;4111;50.972;7.072;2022-10-16T08:35:16;2.60;;;1.30;;
8139;SDS011;4111;50.972;7.072;2022-10-16T08:37:43;5.23;;;1.33;;
8139;SDS011;4111;50.972;7.072;2022-10-16T08:40:16;4.13;;;1.63;;
8139;SDS011;4111;50.972;7.072;2022-10-16T08:48:48;1.60;;;1.50;;
8139;SDS011;4111;50.972;7.072;2022-10-16T08:51:22;5.17;;;1.60;;
8139;SDS011;4111;50.972;7.072;2022-10-16T08:53:53;2.07;;;1.50;;
8139;SDS011;4111;50.972;7.072;2022-10-16T08:56:22;1.73;;;1.50;;
8139;SDS011;4111;50.972;7.072;2022-10-16T08:58:51;1.60;;;1.50;;
8139;SDS011;4111;50.972;7.072;2022-10-16T09:01:28;2.77;;;1.77;;
8139;SDS011;4111;50.972;7.072;2022-10-16T09:04:13;3.43;;;1.20;;
8139;SDS011;4111;50.972;7.072;2022-10-16T09:07:32;1.93;;;1.40;;
8139;SDS011;4111;50.972;7.072;2022-10-16T09:13:29;1.13;;;1.10;;
8139;SDS011;4111;50.972;7.072;2022-10-16T09:16:22;2.03;;;1.13;;
8139;SDS011;4111;50.972;7.072;2022-10-16T09:18:58;3.00;;;1.27;;
8139;SDS011;4111;50.972;7.072;2022-10-16T09:21:34;2.00;;;1.10;;
8139;SDS011;4111;50.972;7.072;2022-10-16T09:24:12;1.57;;;1.27;;
8139;SDS011;4111;50.972;7.072;2022-10-16T09:26:42;3.40;;;1.20;;
8139;SDS011;4111;50.972;7.072;2022-10-16T09:29:12;1.97;;;1.33;;
8139;SDS011;4111;50.972;7.072;2022-10-16T09:31:40;3.30;;;1.13;;
8139;SDS011;4111;50.972;7.072;2022-10-16T09:34:14;1.83;;;1.10;;
8139;SDS011;4111;50.972;7.072;2022-10-16T09:36:50;5.03;;;1.00;;
8139;SDS011;4111;50.972;7.072;2022-10-16T09:39:17;2.53;;;1.20;;
8139;SDS011;4111;50.972;7.072;2022-10-16T09:41:44;2.27;;;1.27;;
8139;SDS011;4111;50.972;7.072;2022-10-16T09:44:19;5.63;;;1.10;;
8139;SDS011;4111;50.972;7.072;2022-10-16T09:47:00;2.07;;;1.13;;
8139;SDS011;4111;50.972;7.072;2022-10-16T09:49:31;2.63;;;0.90;;
8139;SDS011;4111;50.972;7.072;2022-10-16T09:52:05;0.87;;;0.87;;
8139;SDS011;4111;50.972;7.072;2022-10-16T09:54:36;1.67;;;0.83;;
8139;SDS011;4111;50.972;7.072;2022-10-16T09:57:06;1.67;;;1.00;;
8139;SDS011;4111;50.972;7.072;2022-10-16T09:59:34;2.10;;;1.10;;
8139;SDS011;4111;50.972;7.072;2022-10-16T10:02:01;3.00;;;1.10;;
8139;SDS011;4111;50.972;7.072;2022-10-16T10:04:41;6.50;;;2.30;;
8139;SDS011;4111;50.972;7.072;2022-10-16T10:07:24;1.10;;;1.10;;
8139;SDS011;4111;50.972;7.072;2022-10-16T10:09:53;3.17;;;1.10;;
8139;SDS011;4111;50.972;7.072;2022-10-16T10:12:28;2.73;;;0.90;;
8139;SDS011;4111;50.972;7.072;2022-10-16T10:15:03;2.13;;;1.23;;
8139;SDS011;4111;50.972;7.072;2022-10-16T10:17:32;1.00;;;1.00;;
8139;SDS011;4111;50.972;7.072;2022-10-16T10:19:59;2.50;;;1.23;;
8139;SDS011;4111;50.972;7.072;2022-10-16T10:36:08;2.40;;;0.90;;
8139;SDS011;4111;50.972;7.072;2022-10-16T10:38:43;1.00;;;0.70;;
8139;SDS011;4111;50.972;7.072;2022-10-16T10:41:34;1.70;;;1.07;;
8139;SDS011;4111;50.972;7.072;2022-10-16T11:03:42;1.13;;;0.80;;
8139;SDS011;4111;50.972;7.072;2022-10-16T11:06:26;1.57;;;0.80;;
8139;SDS011;4111;50.972;7.072;2022-10-16T11:09:12;1.67;;;0.90;;
8139;SDS011;4111;50.972;7.072;2022-10-16T11:14:18;1.87;;;1.13;;
8139;SDS011;4111;50.972;7.072;2022-10-16T11:16:52;3.20;;;1.17;;
8139;SDS011;4111;50.972;7.072;2022-10-16T11:22:08;3.40;;;1.13;;
8139;SDS011;4111;50.972;7.072;2022-10-16T11:24:42;2.80;;;0.87;;
8139;SDS011;4111;50.972;7.072;2022-10-16T11:27:15;2.57;;;0.90;;
8139;SDS011;4111;50.972;7.072;2022-10-16T11:29:50;2.97;;;1.10;;
8139;SDS011;4111;50.972;7.072;2022-10-16T11:32:24;0.80;;;0.80;;
8139;SDS011;4111;50.972;7.072;2022-10-16T11:34:58;5.27;;;0.80;;
8139;SDS011;4111;50.972;7.072;2022-10-16T11:37:39;1.10;;;1.00;;
8139;SDS011;4111;50.972;7.072;2022-10-16T11:45:57;1.87;;;0.90;;
8139;SDS011;4111;50.972;7.072;2022-10-16T11:51:05;0.73;;;0.60;;
8139;SDS011;4111;50.972;7.072;2022-10-16T11:56:30;1.13;;;0.87;;
8139;SDS011;4111;50.972;7.072;2022-10-16T11:59:25;1.30;;;0.90;;
8139;SDS011;4111;50.972;7.072;2022-10-16T12:04:49;2.47;;;0.97;;
8139;SDS011;4111;50.972;7.072;2022-10-16T12:07:40;2.23;;;0.97;;
8139;SDS011;4111;50.972;7.072;2022-10-16T12:10:19;3.37;;;0.97;;
8139;SDS011;4111;50.972;7.072;2022-10-16T12:12:53;1.50;;;1.00;;
8139;SDS011;4111;50.972;7.072;2022-10-16T12:15:21;1.73;;;0.80;;
8139;SDS011;4111;50.972;7.072;2022-10-16T12:18:20;0.90;;;0.80;;
8139;SDS011;4111;50.972;7.072;2022-10-16T12:20:54;1.10;;;1.00;;
8139;SDS011;4111;50.972;7.072;2022-10-16T12:23:25;1.60;;;1.10;;
8139;SDS011;4111;50.972;7.072;2022-10-16T12:25:55;0.77;;;0.73;;
8139;SDS011;4111;50.972;7.072;2022-10-16T12:28:31;0.60;;;0.60;;
8139;SDS011;4111;50.972;7.072;2022-10-16T12:31:00;1.00;;;0.90;;
8139;SDS011;4111;50.972;7.072;2022-10-16T12:33:36;0.77;;;0.70;;
8139;SDS011;4111;50.972;7.072;2022-10-16T12:36:12;1.90;;;0.80;;
8139;SDS011;4111;50.972;7.072;2022-10-16T12:38:50;2.77;;;1.07;;
8139;SDS011;4111;50.972;7.072;2022-10-16T12:41:26;0.80;;;0.80;;
8139;SDS011;4111;50.972;7.072;2022-10-16T12:43:57;1.90;;;0.93;;
8139;SDS011;4111;50.972;7.072;2022-10-16T12:46:33;0.80;;;0.80;;
8139;SDS011;4111;50.972;7.072;2022-10-16T12:51:55;0.87;;;0.83;;
8139;SDS011;4111;50.972;7.072;2022-10-16T13:11:10;2.67;;;0.93;;
8139;SDS011;4111;50.972;7.072;2022-10-16T13:14:07;2.03;;;1.10;;
8139;SDS011;4111;50.972;7.072;2022-10-16T13:19:44;1.30;;;1.20;;
8139;SDS011;4111;50.972;7.072;2022-10-16T13:25:14;1.70;;;1.00;;
8139;SDS011;4111;50.972;7.072;2022-10-16T13:30:14;0.83;;;0.70;;
8139;SDS011;4111;50.972;7.072;2022-10-16T13:32:48;2.00;;;1.07;;
8139;SDS011;4111;50.972;7.072;2022-10-16T13:35:19;0.87;;;0.87;;
8139;SDS011;4111;50.972;7.072;2022-10-16T13:37:48;1.07;;;0.80;;
8139;SDS011;4111;50.972;7.072;2022-10-16T13:40:19;2.33;;;0.90;;
8139;SDS011;4111;50.972;7.072;2022-10-16T13:42:50;0.87;;;0.80;;
8139;SDS011;4111;50.972;7.072;2022-10-16T13:45:28;2.03;;;1.20;;
8139;SDS011;4111;50.972;7.072;2022-10-16T13:48:01;2.77;;;1.10;;
8139;SDS011;4111;50.972;7.072;2022-10-16T13:50:32;1.30;;;1.03;;
8139;SDS011;4111;50.972;7.072;2022-10-16T13:53:05;2.73;;;0.80;;
8139;SDS011;4111;50.972;7.072;2022-10-16T13:55:33;0.80;;;0.80;;
8139;SDS011;4111;50.972;7.072;2022-10-16T13:58:10;2.27;;;0.93;;
8139;SDS011;4111;50.972;7.072;2022-10-16T14:00:39;0.97;;;0.80;;
8139;SDS011;4111;50.972;7.072;2022-10-16T14:03:11;2.10;;;0.90;;
8139;SDS011;4111;50.972;7.072;2022-10-16T14:05:47;1.23;;;1.07;;
8139;SDS011;4111;50.972;7.072;2022-10-16T14:08:16;0.87;;;0.87;;
8139;SDS011;4111;50.972;7.072;2022-10-16T14:10:42;1.00;;;0.90;;
8139;SDS011;4111;50.972;7.072;2022-10-16T14:13:16;4.33;;;1.23;;
8139;SDS011;4111;50.972;7.072;2022-10-16T14:15:48;1.00;;;0.90;;
8139;SDS011;4111;50.972;7.072;2022-10-16T14:18:19;1.20;;;0.87;;
8139;SDS011;4111;50.972;7.072;2022-10-16T14:20:49;2.90;;;1.00;;
8139;SDS011;4111;50.972;7.072;2022-10-16T14:23:35;1.97;;;0.77;;
8139;SDS011;4111;50.972;7.072;2022-10-16T14:28:36;2.37;;;1.20;;
8139;SDS011;4111;50.972;7.072;2022-10-16T14:31:19;2.50;;;0.90;;
8139;SDS011;4111;50.972;7.072;2022-10-16T14:33:50;5.13;;;0.90;;
8139;SDS011;4111;50.972;7.072;2022-10-16T14:36:17;2.97;;;1.10;;
8139;SDS011;4111;50.972;7.072;2022-10-16T14:38:49;0.77;;;0.70;;
8139;SDS011;4111;50.972;7.072;2022-10-16T14:41:32;0.73;;;0.73;;
8139;SDS011;4111;50.972;7.072;2022-10-16T14:44:09;1.23;;;0.83;;
8139;SDS011;4111;50.972;7.072;2022-10-16T14:46:38;4.07;;;0.90;;
8139;SDS011;4111;50.972;7.072;2022-10-16T14:51:36;1.70;;;0.90;;
8139;SDS011;4111;50.972;7.072;2022-10-16T14:54:11;1.47;;;0.93;;
8139;SDS011;4111;50.972;7.072;2022-10-16T15:01:55;1.80;;;0.90;;
8139;SDS011;4111;50.972;7.072;2022-10-16T15:04:21;2.20;;;0.90;;
8139;SDS011;4111;50.972;7.072;2022-10-16T15:06:48;2.27;;;1.07;;
8139;SDS011;4111;50.972;7.072;2022-10-16T15:09:15;1.37;;;1.03;;
8139;SDS011;4111;50.972;7.072;2022-10-16T15:11:41;1.40;;;0.90;;
8139;SDS011;4111;50.972;7.072;2022-10-16T15:14:10;2.33;;;0.90;;
8139;SDS011;4111;50.972;7.072;2022-10-16T15:16:38;0.90;;;0.90;;
8139;SDS011;4111;50.972;7.072;2022-10-16T15:19:05;2.90;;;1.10;;
8139;SDS011;4111;50.972;7.072;2022-10-16T15:21:32;1.57;;;1.00;;
8139;SDS011;4111;50.972;7.072;2022-10-16T15:24:00;2.77;;;0.90;;
8139;SDS011;4111;50.972;7.072;2022-10-16T15:26:27;1.10;;;1.00;;
8139;SDS011;4111;50.972;7.072;2022-10-16T15:28:55;1.23;;;1.00;;
8139;SDS011;4111;50.972;7.072;2022-10-16T15:31:22;1.33;;;0.80;;
8139;SDS011;4111;50.972;7.072;2022-10-16T15:33:49;1.80;;;1.00;;
8139;SDS011;4111;50.972;7.072;2022-10-16T15:36:29;1.30;;;1.20;;
8139;SDS011;4111;50.972;7.072;2022-10-16T15:38:59;2.00;;;1.40;;
8139;SDS011;4111;50.972;7.072;2022-10-16T15:41:26;2.00;;;1.00;;
8139;SDS011;4111;50.972;7.072;2022-10-16T15:43:53;1.17;;;0.93;;
8139;SDS011;4111;50.972;7.072;2022-10-16T15:46:20;1.30;;;1.00;;
8139;SDS011;4111;50.972;7.072;2022-10-16T15:48:51;5.40;;;1.40;;
8139;SDS011;4111;50.972;7.072;2022-10-16T15:51:22;1.87;;;1.20;;
8139;SDS011;4111;50.972;7.072;2022-10-16T15:53:49;1.13;;;1.00;;
8139;SDS011;4111;50.972;7.072;2022-10-16T15:56:16;2.10;;;1.20;;
8139;SDS011;4111;50.972;7.072;2022-10-16T15:58:43;1.33;;;1.23;;
8139;SDS011;4111;50.972;7.072;2022-10-16T16:01:10;2.17;;;1.07;;
8139;SDS011;4111;50.972;7.072;2022-10-16T16:03:37;1.20;;;1.10;;
8139;SDS011;4111;50.972;7.072;2022-10-16T16:06:07;1.40;;;1.30;;
8139;SDS011;4111;50.972;7.072;2022-10-16T16:08:36;1.30;;;1.10;;
8139;SDS011;4111;50.972;7.072;2022-10-16T16:13:36;1.37;;;1.27;;
8139;SDS011;4111;50.972;7.072;2022-10-16T16:16:11;1.13;;;1.03;;
8139;SDS011;4111;50.972;7.072;2022-10-16T16:18:39;3.10;;;1.50;;
8139;SDS011;4111;50.972;7.072;2022-10-16T16:21:07;1.43;;;1.33;;
8139;SDS011;4111;50.972;7.072;2022-10-16T16:23:35;2.60;;;1.53;;
8139;SDS011;4111;50.972;7.072;2022-10-16T16:28:58;2.27;;;1.60;;
8139;SDS011;4111;50.972;7.072;2022-10-16T16:31:25;1.73;;;1.50;;
8139;SDS011;4111;50.972;7.072;2022-10-16T16:33:53;1.90;;;1.20;;
8139;SDS011;4111;50.972;7.072;2022-10-16T16:36:19;1.17;;;1.10;;
8139;SDS011;4111;50.972;7.072;2022-10-16T16:38:46;3.63;;;1.27;;
8139;SDS011;4111;50.972;7.072;2022-10-16T16:41:19;3.30;;;1.37;;
8139;SDS011;4111;50.972;7.072;2022-10-16T16:43:47;1.93;;;1.30;;
8139;SDS011;4111;50.972;7.072;2022-10-16T16:46:15;2.10;;;1.60;;
8139;SDS011;4111;50.972;7.072;2022-10-16T16:48:41;1.23;;;1.13;;
8139;SDS011;4111;50.972;7.072;2022-10-16T16:51:12;3.00;;;1.67;;
8139;SDS011;4111;50.972;7.072;2022-10-16T16:53:42;4.97;;;1.70;;
8139;SDS011;4111;50.972;7.072;2022-10-16T16:56:10;3.43;;;1.57;;
8139;SDS011;4111;50.972;7.072;2022-10-16T16:58:37;6.17;;;1.20;;
8139;SDS011;4111;50.972;7.072;2022-10-16T17:01:04;1.23;;;1.00;;
8139;SDS011;4111;50.972;7.072;2022-10-16T17:03:47;1.63;;;0.97;;
8139;SDS011;4111;50.972;7.072;2022-10-16T17:06:17;2.53;;;1.10;;
8139;SDS011;4111;50.972;7.072;2022-10-16T17:08:46;1.10;;;1.00;;
8139;SDS011;4111;50.972;7.072;2022-10-16T17:11:13;2.67;;;1.20;;
8139;SDS011;4111;50.972;7.072;2022-10-16T17:13:43;1.10;;;1.10;;
8139;SDS011;4111;50.972;7.072;2022-10-16T17:16:09;0.73;;;0.73;;
8139;SDS011;4111;50.972;7.072;2022-10-16T17:18:36;1.33;;;1.20;;
8139;SDS011;4111;50.972;7.072;2022-10-16T17:21:04;6.83;;;1.00;;
8139;SDS011;4111;50.972;7.072;2022-10-16T17:23:32;1.70;;;1.10;;
8139;SDS011;4111;50.972;7.072;2022-10-16T17:26:04;1.30;;;1.20;;
8139;SDS011;4111;50.972;7.072;2022-10-16T17:28:31;3.57;;;1.00;;
8139;SDS011;4111;50.972;7.072;2022-10-16T17:31:08;1.13;;;1.13;;
8139;SDS011;4111;50.972;7.072;2022-10-16T17:33:46;1.07;;;0.90;;
8139;SDS011;4111;50.972;7.072;2022-10-16T17:36:13;3.40;;;1.43;;
8139;SDS011;4111;50.972;7.072;2022-10-16T17:38:40;5.73;;;1.23;;